sensor_id;sensor_type;location;lat;lon;timestamp;P1;durP1;ratioP1;P2;durP2;ratioP2
9716;SDS011;4897;43.570;27.832;2023-03-01T00:00:54;10.07;;;5.82;;
9716;SDS011;4897;43.570;27.832;2023-03-01T00:03:26;9.85;;;5.70;;
9716;SDS011;4897;43.570;27.832;2023-03-01T00:05:53;8.15;;;5.75;;
9716;SDS011;4897;43.570;27.832;2023-03-01T00:08:21;9.75;;;5.88;;
9716;SDS011;4897;43.570;27.832;2023-03-01T00:10:48;9.18;;;5.55;;
9716;SDS011;4897;43.570;27.832;2023-03-01T00:13:15;7.68;;;5.50;;
9716;SDS011;4897;43.570;27.832;2023-03-01T00:15:42;8.50;;;5.88;;
9716;SDS011;4897;43.570;27.832;2023-03-01T00:18:08;8.05;;;5.65;;
9716;SDS011;4897;43.570;27.832;2023-03-01T00:20:35;10.73;;;6.20;;
9716;SDS011;4897;43.570;27.832;2023-03-01T00:23:02;8.57;;;6.00;;
9716;SDS011;4897;43.570;27.832;2023-03-01T00:25:30;10.73;;;6.03;;
9716;SDS011;4897;43.570;27.832;2023-03-01T00:27:57;10.68;;;6.50;;
9716;SDS011;4897;43.570;27.832;2023-03-01T00:30:24;9.93;;;6.00;;
9716;SDS011;4897;43.570;27.832;2023-03-01T00:32:51;8.38;;;6.18;;
9716;SDS011;4897;43.570;27.832;2023-03-01T00:35:18;13.65;;;5.95;;
9716;SDS011;4897;43.570;27.832;2023-03-01T00:37:45;10.43;;;6.10;;
9716;SDS011;4897;43.570;27.832;2023-03-01T00:40:12;13.48;;;7.30;;
9716;SDS011;4897;43.570;27.832;2023-03-01T00:42:42;11.05;;;7.07;;
9716;SDS011;4897;43.570;27.832;2023-03-01T00:45:09;14.35;;;6.05;;
9716;SDS011;4897;43.570;27.832;2023-03-01T00:47:38;10.07;;;6.22;;
9716;SDS011;4897;43.570;27.832;2023-03-01T00:50:05;9.88;;;6.20;;
9716;SDS011;4897;43.570;27.832;2023-03-01T00:52:32;10.50;;;6.53;;
9716;SDS011;4897;43.570;27.832;2023-03-01T00:54:59;11.93;;;7.15;;
9716;SDS011;4897;43.570;27.832;2023-03-01T00:57:26;11.38;;;6.90;;
9716;SDS011;4897;43.570;27.832;2023-03-01T00:59:54;10.18;;;6.53;;
9716;SDS011;4897;43.570;27.832;2023-03-01T01:02:22;10.38;;;7.07;;
9716;SDS011;4897;43.570;27.832;2023-03-01T01:04:49;10.70;;;6.85;;
9716;SDS011;4897;43.570;27.832;2023-03-01T01:07:15;8.25;;;6.25;;
9716;SDS011;4897;43.570;27.832;2023-03-01T01:09:45;8.73;;;6.20;;
9716;SDS011;4897;43.570;27.832;2023-03-01T01:12:12;8.15;;;5.80;;
9716;SDS011;4897;43.570;27.832;2023-03-01T01:14:39;9.55;;;6.50;;
9716;SDS011;4897;43.570;27.832;2023-03-01T01:17:07;10.35;;;6.15;;
9716;SDS011;4897;43.570;27.832;2023-03-01T01:19:35;9.48;;;6.15;;
9716;SDS011;4897;43.570;27.832;2023-03-01T01:22:02;14.38;;;6.82;;
9716;SDS011;4897;43.570;27.832;2023-03-01T01:24:29;9.73;;;6.53;;
9716;SDS011;4897;43.570;27.832;2023-03-01T01:26:56;10.05;;;6.10;;
9716;SDS011;4897;43.570;27.832;2023-03-01T01:29:23;9.98;;;6.63;;
9716;SDS011;4897;43.570;27.832;2023-03-01T01:31:50;9.93;;;6.45;;
9716;SDS011;4897;43.570;27.832;2023-03-01T01:34:19;9.98;;;6.03;;
9716;SDS011;4897;43.570;27.832;2023-03-01T01:36:48;10.35;;;6.43;;
9716;SDS011;4897;43.570;27.832;2023-03-01T01:39:15;10.38;;;6.68;;
9716;SDS011;4897;43.570;27.832;2023-03-01T01:41:43;10.25;;;6.40;;
9716;SDS011;4897;43.570;27.832;2023-03-01T01:44:11;10.77;;;6.63;;
9716;SDS011;4897;43.570;27.832;2023-03-01T01:46:41;11.48;;;7.13;;
9716;SDS011;4897;43.570;27.832;2023-03-01T01:49:11;9.73;;;6.70;;
9716;SDS011;4897;43.570;27.832;2023-03-01T01:51:48;13.32;;;6.95;;
9716;SDS011;4897;43.570;27.832;2023-03-01T01:54:19;9.57;;;6.35;;
9716;SDS011;4897;43.570;27.832;2023-03-01T01:56:51;10.82;;;6.93;;
9716;SDS011;4897;43.570;27.832;2023-03-01T01:59:21;11.90;;;7.20;;
9716;SDS011;4897;43.570;27.832;2023-03-01T02:01:50;12.30;;;7.60;;
9716;SDS011;4897;43.570;27.832;2023-03-01T02:04:19;10.93;;;7.07;;
9716;SDS011;4897;43.570;27.832;2023-03-01T02:06:48;13.50;;;8.07;;
9716;SDS011;4897;43.570;27.832;2023-03-01T02:09:18;11.75;;;7.85;;
9716;SDS011;4897;43.570;27.832;2023-03-01T02:11:46;11.43;;;7.05;;
9716;SDS011;4897;43.570;27.832;2023-03-01T02:14:14;12.85;;;8.45;;
9716;SDS011;4897;43.570;27.832;2023-03-01T02:16:41;12.43;;;8.38;;
9716;SDS011;4897;43.570;27.832;2023-03-01T02:19:09;12.88;;;8.30;;
9716;SDS011;4897;43.570;27.832;2023-03-01T02:21:49;15.55;;;8.85;;
9716;SDS011;4897;43.570;27.832;2023-03-01T02:24:28;13.38;;;7.85;;
9716;SDS011;4897;43.570;27.832;2023-03-01T02:27:02;12.20;;;7.88;;
9716;SDS011;4897;43.570;27.832;2023-03-01T02:29:31;14.30;;;8.98;;
9716;SDS011;4897;43.570;27.832;2023-03-01T02:31:59;11.18;;;8.23;;
9716;SDS011;4897;43.570;27.832;2023-03-01T02:34:28;13.55;;;8.25;;
9716;SDS011;4897;43.570;27.832;2023-03-01T02:36:59;12.60;;;8.32;;
9716;SDS011;4897;43.570;27.832;2023-03-01T02:39:30;15.15;;;9.18;;
9716;SDS011;4897;43.570;27.832;2023-03-01T02:42:00;13.27;;;8.98;;
9716;SDS011;4897;43.570;27.832;2023-03-01T02:44:32;12.02;;;8.68;;
9716;SDS011;4897;43.570;27.832;2023-03-01T02:46:59;13.00;;;9.02;;
9716;SDS011;4897;43.570;27.832;2023-03-01T02:49:29;13.27;;;8.80;;
9716;SDS011;4897;43.570;27.832;2023-03-01T02:55:02;13.38;;;9.18;;
9716;SDS011;4897;43.570;27.832;2023-03-01T02:57:33;14.95;;;9.65;;
9716;SDS011;4897;43.570;27.832;2023-03-01T03:00:03;14.82;;;9.80;;
9716;SDS011;4897;43.570;27.832;2023-03-01T03:02:34;13.15;;;9.13;;
9716;SDS011;4897;43.570;27.832;2023-03-01T03:05:05;14.10;;;10.07;;
9716;SDS011;4897;43.570;27.832;2023-03-01T03:07:34;14.82;;;9.48;;
9716;SDS011;4897;43.570;27.832;2023-03-01T03:10:02;14.57;;;9.75;;
9716;SDS011;4897;43.570;27.832;2023-03-01T03:12:31;14.52;;;9.68;;
9716;SDS011;4897;43.570;27.832;2023-03-01T03:14:57;15.45;;;10.05;;
9716;SDS011;4897;43.570;27.832;2023-03-01T03:17:26;17.67;;;9.63;;
9716;SDS011;4897;43.570;27.832;2023-03-01T03:19:53;13.98;;;9.65;;
9716;SDS011;4897;43.570;27.832;2023-03-01T03:22:19;15.35;;;10.32;;
9716;SDS011;4897;43.570;27.832;2023-03-01T03:24:46;14.73;;;9.88;;
9716;SDS011;4897;43.570;27.832;2023-03-01T03:27:13;16.13;;;10.60;;
9716;SDS011;4897;43.570;27.832;2023-03-01T03:29:40;17.63;;;10.43;;
9716;SDS011;4897;43.570;27.832;2023-03-01T03:32:07;17.30;;;10.52;;
9716;SDS011;4897;43.570;27.832;2023-03-01T03:34:35;17.48;;;10.73;;
9716;SDS011;4897;43.570;27.832;2023-03-01T03:37:02;16.15;;;9.60;;
9716;SDS011;4897;43.570;27.832;2023-03-01T03:39:49;15.13;;;9.10;;
9716;SDS011;4897;43.570;27.832;2023-03-01T03:42:19;14.77;;;9.63;;
9716;SDS011;4897;43.570;27.832;2023-03-01T03:44:46;15.75;;;10.10;;
9716;SDS011;4897;43.570;27.832;2023-03-01T03:47:13;14.77;;;10.38;;
9716;SDS011;4897;43.570;27.832;2023-03-01T03:49:42;16.88;;;10.23;;
9716;SDS011;4897;43.570;27.832;2023-03-01T03:52:09;19.65;;;9.93;;
9716;SDS011;4897;43.570;27.832;2023-03-01T03:54:38;17.52;;;9.82;;
9716;SDS011;4897;43.570;27.832;2023-03-01T03:57:05;15.32;;;10.20;;
9716;SDS011;4897;43.570;27.832;2023-03-01T03:59:33;15.70;;;9.87;;
9716;SDS011;4897;43.570;27.832;2023-03-01T04:02:00;17.05;;;10.25;;
9716;SDS011;4897;43.570;27.832;2023-03-01T04:04:26;15.40;;;10.27;;
9716;SDS011;4897;43.570;27.832;2023-03-01T04:06:55;15.38;;;10.70;;
9716;SDS011;4897;43.570;27.832;2023-03-01T04:09:21;17.27;;;10.70;;
9716;SDS011;4897;43.570;27.832;2023-03-01T04:11:48;14.32;;;9.85;;
9716;SDS011;4897;43.570;27.832;2023-03-01T04:14:15;18.73;;;11.07;;
9716;SDS011;4897;43.570;27.832;2023-03-01T04:16:42;16.33;;;10.27;;
9716;SDS011;4897;43.570;27.832;2023-03-01T04:19:09;15.73;;;10.35;;
9716;SDS011;4897;43.570;27.832;2023-03-01T04:21:36;16.65;;;10.10;;
9716;SDS011;4897;43.570;27.832;2023-03-01T04:24:04;16.48;;;9.93;;
9716;SDS011;4897;43.570;27.832;2023-03-01T04:26:31;19.67;;;10.95;;
9716;SDS011;4897;43.570;27.832;2023-03-01T04:28:58;16.58;;;10.15;;
9716;SDS011;4897;43.570;27.832;2023-03-01T04:31:25;20.30;;;11.13;;
9716;SDS011;4897;43.570;27.832;2023-03-01T04:33:53;16.63;;;10.75;;
9716;SDS011;4897;43.570;27.832;2023-03-01T04:36:22;16.85;;;10.13;;
9716;SDS011;4897;43.570;27.832;2023-03-01T04:38:50;17.08;;;10.05;;
9716;SDS011;4897;43.570;27.832;2023-03-01T04:41:20;19.02;;;10.82;;
9716;SDS011;4897;43.570;27.832;2023-03-01T04:43:48;15.30;;;10.55;;
9716;SDS011;4897;43.570;27.832;2023-03-01T04:46:16;15.98;;;9.60;;
9716;SDS011;4897;43.570;27.832;2023-03-01T04:48:45;20.23;;;11.25;;
9716;SDS011;4897;43.570;27.832;2023-03-01T04:51:12;15.13;;;9.88;;
9716;SDS011;4897;43.570;27.832;2023-03-01T04:53:40;15.93;;;10.32;;
9716;SDS011;4897;43.570;27.832;2023-03-01T04:56:07;16.25;;;9.98;;
9716;SDS011;4897;43.570;27.832;2023-03-01T04:58:36;17.02;;;10.98;;
9716;SDS011;4897;43.570;27.832;2023-03-01T05:01:07;16.15;;;10.68;;
9716;SDS011;4897;43.570;27.832;2023-03-01T05:03:40;14.90;;;10.65;;
9716;SDS011;4897;43.570;27.832;2023-03-01T05:06:07;17.08;;;10.80;;
9716;SDS011;4897;43.570;27.832;2023-03-01T05:08:34;15.40;;;10.30;;
9716;SDS011;4897;43.570;27.832;2023-03-01T05:11:03;16.02;;;10.45;;
9716;SDS011;4897;43.570;27.832;2023-03-01T05:13:30;15.63;;;10.30;;
9716;SDS011;4897;43.570;27.832;2023-03-01T05:16:00;16.20;;;10.77;;
9716;SDS011;4897;43.570;27.832;2023-03-01T05:18:28;15.38;;;10.32;;
9716;SDS011;4897;43.570;27.832;2023-03-01T05:21:05;16.75;;;10.48;;
9716;SDS011;4897;43.570;27.832;2023-03-01T05:23:33;21.60;;;12.93;;
9716;SDS011;4897;43.570;27.832;2023-03-01T05:26:01;18.77;;;12.20;;
9716;SDS011;4897;43.570;27.832;2023-03-01T05:28:29;20.63;;;12.20;;
9716;SDS011;4897;43.570;27.832;2023-03-01T05:30:56;18.67;;;12.18;;
9716;SDS011;4897;43.570;27.832;2023-03-01T05:33:26;17.15;;;12.13;;
9716;SDS011;4897;43.570;27.832;2023-03-01T05:35:53;22.58;;;12.45;;
9716;SDS011;4897;43.570;27.832;2023-03-01T05:38:20;19.13;;;12.98;;
9716;SDS011;4897;43.570;27.832;2023-03-01T05:40:50;21.50;;;12.63;;
9716;SDS011;4897;43.570;27.832;2023-03-01T05:43:16;16.08;;;10.90;;
9716;SDS011;4897;43.570;27.832;2023-03-01T05:45:44;19.58;;;10.65;;
9716;SDS011;4897;43.570;27.832;2023-03-01T05:48:11;19.35;;;11.43;;
9716;SDS011;4897;43.570;27.832;2023-03-01T05:50:41;21.70;;;12.07;;
9716;SDS011;4897;43.570;27.832;2023-03-01T05:53:11;20.98;;;12.27;;
9716;SDS011;4897;43.570;27.832;2023-03-01T05:55:40;22.92;;;11.68;;
9716;SDS011;4897;43.570;27.832;2023-03-01T05:58:09;18.10;;;12.18;;
9716;SDS011;4897;43.570;27.832;2023-03-01T06:00:39;17.98;;;11.02;;
9716;SDS011;4897;43.570;27.832;2023-03-01T06:03:06;17.58;;;11.35;;
9716;SDS011;4897;43.570;27.832;2023-03-01T06:05:35;22.35;;;12.25;;
9716;SDS011;4897;43.570;27.832;2023-03-01T06:08:04;21.10;;;12.48;;
9716;SDS011;4897;43.570;27.832;2023-03-01T06:10:32;19.05;;;12.20;;
9716;SDS011;4897;43.570;27.832;2023-03-01T06:12:59;20.75;;;12.48;;
9716;SDS011;4897;43.570;27.832;2023-03-01T06:15:26;18.73;;;12.32;;
9716;SDS011;4897;43.570;27.832;2023-03-01T06:17:53;18.73;;;12.27;;
9716;SDS011;4897;43.570;27.832;2023-03-01T06:20:22;19.27;;;11.52;;
9716;SDS011;4897;43.570;27.832;2023-03-01T06:22:51;17.38;;;12.55;;
9716;SDS011;4897;43.570;27.832;2023-03-01T06:25:19;17.27;;;11.48;;
9716;SDS011;4897;43.570;27.832;2023-03-01T06:27:48;17.65;;;11.48;;
9716;SDS011;4897;43.570;27.832;2023-03-01T06:30:17;15.40;;;10.93;;
9716;SDS011;4897;43.570;27.832;2023-03-01T06:32:45;17.42;;;10.90;;
9716;SDS011;4897;43.570;27.832;2023-03-01T06:35:13;17.50;;;11.73;;
9716;SDS011;4897;43.570;27.832;2023-03-01T06:37:42;16.90;;;11.50;;
9716;SDS011;4897;43.570;27.832;2023-03-01T06:40:12;20.35;;;12.23;;
9716;SDS011;4897;43.570;27.832;2023-03-01T06:42:42;20.45;;;11.70;;
9716;SDS011;4897;43.570;27.832;2023-03-01T06:45:14;19.55;;;12.40;;
9716;SDS011;4897;43.570;27.832;2023-03-01T06:47:41;18.90;;;11.93;;
9716;SDS011;4897;43.570;27.832;2023-03-01T06:50:08;19.30;;;12.25;;
9716;SDS011;4897;43.570;27.832;2023-03-01T06:52:36;17.77;;;11.30;;
9716;SDS011;4897;43.570;27.832;2023-03-01T06:55:04;18.65;;;12.40;;
9716;SDS011;4897;43.570;27.832;2023-03-01T06:57:31;21.60;;;12.82;;
9716;SDS011;4897;43.570;27.832;2023-03-01T07:00:00;20.25;;;13.73;;
9716;SDS011;4897;43.570;27.832;2023-03-01T07:02:27;21.85;;;11.65;;
9716;SDS011;4897;43.570;27.832;2023-03-01T07:04:53;16.40;;;11.27;;
9716;SDS011;4897;43.570;27.832;2023-03-01T07:07:20;18.45;;;11.85;;
9716;SDS011;4897;43.570;27.832;2023-03-01T07:09:48;16.13;;;11.15;;
9716;SDS011;4897;43.570;27.832;2023-03-01T07:12:15;18.05;;;11.80;;
9716;SDS011;4897;43.570;27.832;2023-03-01T07:14:43;18.42;;;11.40;;
9716;SDS011;4897;43.570;27.832;2023-03-01T07:17:12;17.92;;;12.55;;
9716;SDS011;4897;43.570;27.832;2023-03-01T07:19:38;18.85;;;12.35;;
9716;SDS011;4897;43.570;27.832;2023-03-01T07:22:05;21.40;;;12.40;;
9716;SDS011;4897;43.570;27.832;2023-03-01T07:24:34;19.35;;;12.30;;
9716;SDS011;4897;43.570;27.832;2023-03-01T07:27:01;16.92;;;12.68;;
9716;SDS011;4897;43.570;27.832;2023-03-01T07:29:28;19.58;;;13.18;;
9716;SDS011;4897;43.570;27.832;2023-03-01T07:31:55;19.25;;;12.18;;
9716;SDS011;4897;43.570;27.832;2023-03-01T07:34:24;17.20;;;11.60;;
9716;SDS011;4897;43.570;27.832;2023-03-01T07:36:51;19.15;;;11.07;;
9716;SDS011;4897;43.570;27.832;2023-03-01T07:39:18;21.58;;;12.18;;
9716;SDS011;4897;43.570;27.832;2023-03-01T07:41:45;18.40;;;12.65;;
9716;SDS011;4897;43.570;27.832;2023-03-01T07:44:12;22.35;;;12.25;;
9716;SDS011;4897;43.570;27.832;2023-03-01T07:46:40;19.30;;;13.18;;
9716;SDS011;4897;43.570;27.832;2023-03-01T07:49:06;17.40;;;10.90;;
9716;SDS011;4897;43.570;27.832;2023-03-01T07:51:35;18.67;;;11.27;;
9716;SDS011;4897;43.570;27.832;2023-03-01T07:54:02;20.52;;;12.15;;
9716;SDS011;4897;43.570;27.832;2023-03-01T07:56:29;17.48;;;11.32;;
9716;SDS011;4897;43.570;27.832;2023-03-01T07:58:56;16.20;;;10.93;;
9716;SDS011;4897;43.570;27.832;2023-03-01T08:01:25;18.27;;;12.40;;
9716;SDS011;4897;43.570;27.832;2023-03-01T08:03:52;22.38;;;13.38;;
9716;SDS011;4897;43.570;27.832;2023-03-01T08:06:19;19.52;;;12.95;;
9716;SDS011;4897;43.570;27.832;2023-03-01T08:08:47;18.63;;;11.50;;
9716;SDS011;4897;43.570;27.832;2023-03-01T08:11:14;18.88;;;11.90;;
9716;SDS011;4897;43.570;27.832;2023-03-01T08:13:42;17.65;;;13.15;;
9716;SDS011;4897;43.570;27.832;2023-03-01T08:16:10;20.00;;;13.38;;
9716;SDS011;4897;43.570;27.832;2023-03-01T08:18:38;19.38;;;12.10;;
9716;SDS011;4897;43.570;27.832;2023-03-01T08:21:06;23.60;;;12.13;;
9716;SDS011;4897;43.570;27.832;2023-03-01T08:23:34;18.77;;;12.10;;
9716;SDS011;4897;43.570;27.832;2023-03-01T08:26:07;21.38;;;12.98;;
9716;SDS011;4897;43.570;27.832;2023-03-01T08:28:35;26.73;;;13.70;;
9716;SDS011;4897;43.570;27.832;2023-03-01T08:31:03;21.35;;;11.65;;
9716;SDS011;4897;43.570;27.832;2023-03-01T08:33:39;20.75;;;12.20;;
9716;SDS011;4897;43.570;27.832;2023-03-01T08:36:06;17.58;;;13.00;;
9716;SDS011;4897;43.570;27.832;2023-03-01T08:38:33;17.48;;;12.30;;
9716;SDS011;4897;43.570;27.832;2023-03-01T08:41:00;23.27;;;14.35;;
9716;SDS011;4897;43.570;27.832;2023-03-01T08:43:29;18.63;;;13.00;;
9716;SDS011;4897;43.570;27.832;2023-03-01T08:45:56;23.48;;;13.27;;
9716;SDS011;4897;43.570;27.832;2023-03-01T08:48:23;18.92;;;12.10;;
9716;SDS011;4897;43.570;27.832;2023-03-01T08:50:50;22.02;;;13.40;;
9716;SDS011;4897;43.570;27.832;2023-03-01T08:53:17;20.63;;;13.75;;
9716;SDS011;4897;43.570;27.832;2023-03-01T08:55:44;21.42;;;13.20;;
9716;SDS011;4897;43.570;27.832;2023-03-01T08:58:12;22.77;;;13.25;;
9716;SDS011;4897;43.570;27.832;2023-03-01T09:00:40;20.95;;;14.23;;
9716;SDS011;4897;43.570;27.832;2023-03-01T09:03:07;21.13;;;13.32;;
9716;SDS011;4897;43.570;27.832;2023-03-01T09:05:34;24.30;;;13.02;;
9716;SDS011;4897;43.570;27.832;2023-03-01T09:08:03;18.25;;;13.00;;
9716;SDS011;4897;43.570;27.832;2023-03-01T09:10:30;21.88;;;13.75;;
9716;SDS011;4897;43.570;27.832;2023-03-01T09:12:57;26.15;;;15.43;;
9716;SDS011;4897;43.570;27.832;2023-03-01T09:15:24;20.88;;;14.85;;
9716;SDS011;4897;43.570;27.832;2023-03-01T09:17:53;26.83;;;15.23;;
9716;SDS011;4897;43.570;27.832;2023-03-01T09:20:20;21.27;;;15.73;;
9716;SDS011;4897;43.570;27.832;2023-03-01T09:22:47;29.52;;;15.55;;
9716;SDS011;4897;43.570;27.832;2023-03-01T09:25:14;23.05;;;15.13;;
9716;SDS011;4897;43.570;27.832;2023-03-01T09:27:41;26.70;;;16.55;;
9716;SDS011;4897;43.570;27.832;2023-03-01T09:30:08;22.60;;;15.85;;
9716;SDS011;4897;43.570;27.832;2023-03-01T09:32:36;21.42;;;14.32;;
9716;SDS011;4897;43.570;27.832;2023-03-01T09:35:09;21.13;;;14.88;;
9716;SDS011;4897;43.570;27.832;2023-03-01T09:37:35;21.33;;;14.52;;
9716;SDS011;4897;43.570;27.832;2023-03-01T09:40:04;22.92;;;13.52;;
9716;SDS011;4897;43.570;27.832;2023-03-01T09:42:35;23.23;;;13.45;;
9716;SDS011;4897;43.570;27.832;2023-03-01T09:45:25;17.92;;;12.25;;
9716;SDS011;4897;43.570;27.832;2023-03-01T09:47:56;17.40;;;12.23;;
9716;SDS011;4897;43.570;27.832;2023-03-01T09:50:24;17.25;;;11.68;;
9716;SDS011;4897;43.570;27.832;2023-03-01T09:52:55;20.15;;;13.50;;
9716;SDS011;4897;43.570;27.832;2023-03-01T09:55:29;22.85;;;13.75;;
9716;SDS011;4897;43.570;27.832;2023-03-01T09:58:00;19.30;;;13.40;;
9716;SDS011;4897;43.570;27.832;2023-03-01T10:00:42;16.42;;;11.85;;
9716;SDS011;4897;43.570;27.832;2023-03-01T10:03:12;18.73;;;11.23;;
9716;SDS011;4897;43.570;27.832;2023-03-01T10:05:50;15.63;;;10.88;;
9716;SDS011;4897;43.570;27.832;2023-03-01T10:08:27;15.40;;;10.18;;
9716;SDS011;4897;43.570;27.832;2023-03-01T10:11:01;17.75;;;9.50;;
9716;SDS011;4897;43.570;27.832;2023-03-01T10:13:31;10.32;;;7.65;;
9716;SDS011;4897;43.570;27.832;2023-03-01T10:16:05;10.35;;;7.25;;
9716;SDS011;4897;43.570;27.832;2023-03-01T10:18:38;10.30;;;7.05;;
9716;SDS011;4897;43.570;27.832;2023-03-01T10:21:12;16.95;;;8.60;;
9716;SDS011;4897;43.570;27.832;2023-03-01T10:23:42;10.35;;;7.82;;
9716;SDS011;4897;43.570;27.832;2023-03-01T10:26:17;13.63;;;8.13;;
9716;SDS011;4897;43.570;27.832;2023-03-01T10:28:56;12.88;;;9.10;;
9716;SDS011;4897;43.570;27.832;2023-03-01T10:31:31;11.70;;;8.52;;
9716;SDS011;4897;43.570;27.832;2023-03-01T10:34:09;13.80;;;8.10;;
9716;SDS011;4897;43.570;27.832;2023-03-01T10:36:40;15.52;;;10.15;;
9716;SDS011;4897;43.570;27.832;2023-03-01T10:39:13;10.27;;;7.68;;
9716;SDS011;4897;43.570;27.832;2023-03-01T10:41:51;12.93;;;8.20;;
9716;SDS011;4897;43.570;27.832;2023-03-01T10:44:40;13.45;;;8.63;;
9716;SDS011;4897;43.570;27.832;2023-03-01T10:47:13;17.88;;;8.52;;
9716;SDS011;4897;43.570;27.832;2023-03-01T10:49:56;13.77;;;8.40;;
9716;SDS011;4897;43.570;27.832;2023-03-01T10:52:27;13.90;;;8.40;;
9716;SDS011;4897;43.570;27.832;2023-03-01T10:54:57;14.63;;;8.60;;
9716;SDS011;4897;43.570;27.832;2023-03-01T10:57:30;11.10;;;7.88;;
9716;SDS011;4897;43.570;27.832;2023-03-01T11:00:10;14.23;;;9.15;;
9716;SDS011;4897;43.570;27.832;2023-03-01T11:02:45;14.82;;;9.82;;
9716;SDS011;4897;43.570;27.832;2023-03-01T11:05:19;17.77;;;10.88;;
9716;SDS011;4897;43.570;27.832;2023-03-01T11:07:51;16.75;;;10.95;;
9716;SDS011;4897;43.570;27.832;2023-03-01T11:10:20;12.65;;;8.95;;
9716;SDS011;4897;43.570;27.832;2023-03-01T11:12:50;11.60;;;8.32;;
9716;SDS011;4897;43.570;27.832;2023-03-01T11:15:25;14.30;;;8.82;;
9716;SDS011;4897;43.570;27.832;2023-03-01T11:17:54;21.17;;;9.20;;
9716;SDS011;4897;43.570;27.832;2023-03-01T11:20:26;17.38;;;10.02;;
9716;SDS011;4897;43.570;27.832;2023-03-01T11:22:59;15.40;;;10.35;;
9716;SDS011;4897;43.570;27.832;2023-03-01T11:25:31;17.30;;;10.65;;
9716;SDS011;4897;43.570;27.832;2023-03-01T11:28:01;18.40;;;10.32;;
9716;SDS011;4897;43.570;27.832;2023-03-01T11:30:31;23.67;;;9.93;;
9716;SDS011;4897;43.570;27.832;2023-03-01T11:33:05;15.63;;;9.73;;
9716;SDS011;4897;43.570;27.832;2023-03-01T11:35:42;19.75;;;11.10;;
9716;SDS011;4897;43.570;27.832;2023-03-01T11:38:17;23.85;;;10.73;;
9716;SDS011;4897;43.570;27.832;2023-03-01T11:40:50;19.65;;;10.80;;
9716;SDS011;4897;43.570;27.832;2023-03-01T11:43:26;30.27;;;12.07;;
9716;SDS011;4897;43.570;27.832;2023-03-01T11:46:20;17.48;;;9.45;;
9716;SDS011;4897;43.570;27.832;2023-03-01T11:49:13;19.13;;;12.40;;
9716;SDS011;4897;43.570;27.832;2023-03-01T11:51:52;13.80;;;8.98;;
9716;SDS011;4897;43.570;27.832;2023-03-01T11:54:33;14.45;;;8.88;;
9716;SDS011;4897;43.570;27.832;2023-03-01T11:57:15;12.27;;;8.43;;
9716;SDS011;4897;43.570;27.832;2023-03-01T12:02:48;12.40;;;8.57;;
9716;SDS011;4897;43.570;27.832;2023-03-01T12:05:51;13.93;;;8.80;;
9716;SDS011;4897;43.570;27.832;2023-03-01T12:08:30;15.45;;;9.75;;
9716;SDS011;4897;43.570;27.832;2023-03-01T12:11:07;16.67;;;8.32;;
9716;SDS011;4897;43.570;27.832;2023-03-01T12:13:46;17.55;;;9.98;;
9716;SDS011;4897;43.570;27.832;2023-03-01T12:16:35;12.13;;;8.07;;
9716;SDS011;4897;43.570;27.832;2023-03-01T12:19:15;14.18;;;8.52;;
9716;SDS011;4897;43.570;27.832;2023-03-01T12:22:02;15.32;;;9.45;;
9716;SDS011;4897;43.570;27.832;2023-03-01T12:27:44;24.73;;;11.38;;
9716;SDS011;4897;43.570;27.832;2023-03-01T12:30:37;22.27;;;10.25;;
9716;SDS011;4897;43.570;27.832;2023-03-01T12:33:22;19.48;;;8.75;;
9716;SDS011;4897;43.570;27.832;2023-03-01T12:36:10;22.50;;;10.57;;
9716;SDS011;4897;43.570;27.832;2023-03-01T12:38:54;14.75;;;10.05;;
9716;SDS011;4897;43.570;27.832;2023-03-01T12:41:37;15.00;;;9.13;;
9716;SDS011;4897;43.570;27.832;2023-03-01T12:44:20;12.50;;;8.90;;
9716;SDS011;4897;43.570;27.832;2023-03-01T12:47:00;15.68;;;10.05;;
9716;SDS011;4897;43.570;27.832;2023-03-01T12:49:38;14.90;;;10.15;;
9716;SDS011;4897;43.570;27.832;2023-03-01T12:52:10;28.98;;;10.27;;
9716;SDS011;4897;43.570;27.832;2023-03-01T12:54:43;23.63;;;9.57;;
9716;SDS011;4897;43.570;27.832;2023-03-01T12:57:14;16.48;;;10.82;;
9716;SDS011;4897;43.570;27.832;2023-03-01T13:00:00;13.05;;;9.13;;
9716;SDS011;4897;43.570;27.832;2023-03-01T13:02:38;15.20;;;10.13;;
9716;SDS011;4897;43.570;27.832;2023-03-01T13:05:17;15.77;;;8.68;;
9716;SDS011;4897;43.570;27.832;2023-03-01T13:07:54;14.05;;;9.50;;
9716;SDS011;4897;43.570;27.832;2023-03-01T13:10:29;15.40;;;8.95;;
9716;SDS011;4897;43.570;27.832;2023-03-01T13:13:02;13.85;;;9.88;;
9716;SDS011;4897;43.570;27.832;2023-03-01T13:15:40;15.40;;;11.45;;
9716;SDS011;4897;43.570;27.832;2023-03-01T13:20:55;16.33;;;10.43;;
9716;SDS011;4897;43.570;27.832;2023-03-01T13:23:28;15.90;;;10.82;;
9716;SDS011;4897;43.570;27.832;2023-03-01T13:32:05;15.77;;;11.10;;
9716;SDS011;4897;43.570;27.832;2023-03-01T13:34:47;12.18;;;9.25;;
9716;SDS011;4897;43.570;27.832;2023-03-01T13:37:19;14.80;;;9.93;;
9716;SDS011;4897;43.570;27.832;2023-03-01T13:39:51;14.45;;;10.18;;
9716;SDS011;4897;43.570;27.832;2023-03-01T13:42:32;15.93;;;11.43;;
9716;SDS011;4897;43.570;27.832;2023-03-01T13:45:16;24.75;;;11.43;;
9716;SDS011;4897;43.570;27.832;2023-03-01T13:47:47;14.95;;;10.65;;
9716;SDS011;4897;43.570;27.832;2023-03-01T13:50:19;17.85;;;11.85;;
9716;SDS011;4897;43.570;27.832;2023-03-01T13:52:50;25.65;;;12.38;;
9716;SDS011;4897;43.570;27.832;2023-03-01T13:55:23;17.42;;;11.52;;
9716;SDS011;4897;43.570;27.832;2023-03-01T13:57:54;16.80;;;10.50;;
9716;SDS011;4897;43.570;27.832;2023-03-01T14:00:28;15.00;;;10.50;;
9716;SDS011;4897;43.570;27.832;2023-03-01T14:03:01;20.80;;;13.93;;
9716;SDS011;4897;43.570;27.832;2023-03-01T14:05:32;19.67;;;12.93;;
9716;SDS011;4897;43.570;27.832;2023-03-01T14:08:01;25.88;;;13.00;;
9716;SDS011;4897;43.570;27.832;2023-03-01T14:10:29;16.70;;;11.68;;
9716;SDS011;4897;43.570;27.832;2023-03-01T14:13:09;19.75;;;10.88;;
9716;SDS011;4897;43.570;27.832;2023-03-01T14:15:53;25.02;;;12.77;;
9716;SDS011;4897;43.570;27.832;2023-03-01T14:18:35;19.73;;;13.40;;
9716;SDS011;4897;43.570;27.832;2023-03-01T14:21:12;22.55;;;13.85;;
9716;SDS011;4897;43.570;27.832;2023-03-01T14:23:40;35.45;;;13.35;;
9716;SDS011;4897;43.570;27.832;2023-03-01T14:26:08;18.25;;;12.63;;
9716;SDS011;4897;43.570;27.832;2023-03-01T14:28:37;68.93;;;38.50;;
9716;SDS011;4897;43.570;27.832;2023-03-01T14:31:31;18.73;;;11.95;;
9716;SDS011;4897;43.570;27.832;2023-03-01T14:34:03;29.55;;;15.93;;
9716;SDS011;4897;43.570;27.832;2023-03-01T14:36:32;23.55;;;14.38;;
9716;SDS011;4897;43.570;27.832;2023-03-01T14:39:00;23.27;;;14.50;;
9716;SDS011;4897;43.570;27.832;2023-03-01T14:41:34;28.38;;;15.93;;
9716;SDS011;4897;43.570;27.832;2023-03-01T14:44:05;20.33;;;10.77;;
9716;SDS011;4897;43.570;27.832;2023-03-01T14:46:39;18.73;;;11.10;;
9716;SDS011;4897;43.570;27.832;2023-03-01T14:49:11;13.07;;;9.73;;
9716;SDS011;4897;43.570;27.832;2023-03-01T14:51:42;15.82;;;10.02;;
9716;SDS011;4897;43.570;27.832;2023-03-01T14:54:20;15.35;;;10.18;;
9716;SDS011;4897;43.570;27.832;2023-03-01T14:56:51;16.35;;;11.43;;
9716;SDS011;4897;43.570;27.832;2023-03-01T14:59:20;18.23;;;10.82;;
9716;SDS011;4897;43.570;27.832;2023-03-01T15:01:49;22.08;;;13.98;;
9716;SDS011;4897;43.570;27.832;2023-03-01T15:04:21;23.98;;;14.30;;
9716;SDS011;4897;43.570;27.832;2023-03-01T15:06:50;20.73;;;9.60;;
9716;SDS011;4897;43.570;27.832;2023-03-01T15:09:18;20.48;;;12.10;;
9716;SDS011;4897;43.570;27.832;2023-03-01T15:11:45;14.75;;;10.00;;
9716;SDS011;4897;43.570;27.832;2023-03-01T15:14:25;19.02;;;11.02;;
9716;SDS011;4897;43.570;27.832;2023-03-01T15:16:53;15.48;;;10.73;;
9716;SDS011;4897;43.570;27.832;2023-03-01T15:19:22;18.08;;;12.45;;